createdAt,value
2022-08-19T00:00:55.341Z,16.4
2022-08-19T00:01:55.063Z,16.4
2022-08-19T00:02:55.368Z,16.4
2022-08-19T00:03:55.065Z,16.4
2022-08-19T00:04:55.060Z,16.4
2022-08-19T00:05:55.158Z,16.4
2022-08-19T00:06:55.449Z,16.4
2022-08-19T00:07:55.742Z,16.4
2022-08-19T00:08:56.102Z,16.4
2022-08-19T00:09:56.964Z,16.4
2022-08-19T00:10:55.555Z,16.4
2022-08-19T00:11:55.084Z,16.4
2022-08-19T00:12:55.067Z,16.4
2022-08-19T00:13:56.307Z,16.4
2022-08-19T00:14:55.053Z,16.4
2022-08-19T00:15:55.083Z,16.4
2022-08-19T00:16:55.132Z,16.4
2022-08-19T00:17:55.074Z,16.4
2022-08-19T00:18:55.070Z,16.4
2022-08-19T00:19:55.073Z,16.4
2022-08-19T00:20:55.070Z,16.3
2022-08-19T00:21:55.089Z,16.3
2022-08-19T00:22:55.073Z,16.4
2022-08-19T00:23:55.092Z,16.3
2022-08-19T00:24:55.054Z,16.3
2022-08-19T00:25:55.072Z,16.4
2022-08-19T00:26:55.059Z,16.3
2022-08-19T00:27:55.059Z,16.3
2022-08-19T00:28:55.044Z,16.4
2022-08-19T00:29:55.074Z,16.4
2022-08-19T00:30:55.126Z,16.4
2022-08-19T00:31:55.038Z,16.3
2022-08-19T00:32:55.213Z,16.4
2022-08-19T00:33:55.207Z,16.4
2022-08-19T00:34:55.061Z,16.4
2022-08-19T00:35:56.224Z,16.4
2022-08-19T00:36:55.280Z,16.4
2022-08-19T00:37:55.611Z,16.4
2022-08-19T00:38:55.899Z,16.3
2022-08-19T00:39:55.146Z,16.3
2022-08-19T00:40:55.426Z,16.3
2022-08-19T00:41:55.168Z,16.3
2022-08-19T00:42:55.061Z,16.3
2022-08-19T00:43:55.041Z,16.3
2022-08-19T00:44:55.603Z,16.3
2022-08-19T00:45:55.033Z,16.3
2022-08-19T00:46:58.342Z,16.3
2022-08-19T00:47:55.447Z,16.2
2022-08-19T00:48:55.219Z,16.2
2022-08-19T00:49:55.404Z,16.3
2022-08-19T00:50:55.157Z,16.2
2022-08-19T00:51:55.063Z,16.2
2022-08-19T00:52:55.111Z,16.2
2022-08-19T00:53:55.409Z,16.2
2022-08-19T00:54:55.117Z,16.2
2022-08-19T00:55:55.271Z,16.2
2022-08-19T00:56:55.229Z,16.2
2022-08-19T00:57:55.137Z,16.2
2022-08-19T00:58:55.176Z,16.2
2022-08-19T00:59:56.423Z,16.2
2022-08-19T01:00:55.149Z,16.2
2022-08-19T01:01:55.374Z,16.2
2022-08-19T01:02:55.225Z,16.2
2022-08-19T01:03:57.398Z,16.2
2022-08-19T01:04:55.065Z,16.2
2022-08-19T01:05:55.092Z,16.2
2022-08-19T01:06:55.070Z,16.2
2022-08-19T01:07:55.067Z,16.2
2022-08-19T01:08:55.052Z,16.2
2022-08-19T01:09:55.080Z,16.2
2022-08-19T01:10:55.186Z,16.2
2022-08-19T01:11:55.065Z,16.2
2022-08-19T01:12:55.051Z,16.2
2022-08-19T01:13:55.162Z,16.2
2022-08-19T01:14:55.339Z,16.2
2022-08-19T01:15:55.074Z,16.2
2022-08-19T01:16:55.068Z,16.2
2022-08-19T01:17:55.085Z,16.2
2022-08-19T01:18:55.075Z,16.2
2022-08-19T01:19:55.068Z,16.1
2022-08-19T01:20:55.072Z,16.1
2022-08-19T01:21:55.063Z,16.1
2022-08-19T01:22:55.080Z,16.1
2022-08-19T01:23:55.072Z,16.1
2022-08-19T01:24:55.299Z,16.1
2022-08-19T01:25:55.081Z,16.1
2022-08-19T01:26:55.089Z,16
2022-08-19T01:27:55.202Z,16
2022-08-19T01:28:57.479Z,16
2022-08-19T01:29:55.080Z,16
2022-08-19T01:30:55.061Z,16
2022-08-19T01:31:55.066Z,15.9
2022-08-19T01:32:55.176Z,15.9
2022-08-19T01:33:55.069Z,15.9
2022-08-19T01:34:55.077Z,15.9
2022-08-19T01:35:55.084Z,15.9
2022-08-19T01:36:55.105Z,15.9
2022-08-19T01:37:55.073Z,15.8
2022-08-19T01:38:55.060Z,15.8
2022-08-19T01:39:55.100Z,15.8
2022-08-19T01:40:55.055Z,15.7
2022-08-19T01:41:55.070Z,15.8
2022-08-19T01:42:55.208Z,15.7
2022-08-19T01:44:03.062Z,15.7
2022-08-19T01:44:55.069Z,15.7
2022-08-19T01:45:55.070Z,15.7
2022-08-19T01:46:55.067Z,15.6
2022-08-19T01:47:55.574Z,15.6
2022-08-19T01:48:55.203Z,15.6
2022-08-19T01:49:55.065Z,15.6
2022-08-19T01:50:55.073Z,15.6
2022-08-19T01:51:55.076Z,15.5
2022-08-19T01:52:56.555Z,15.5
2022-08-19T01:53:55.068Z,15.5
2022-08-19T01:54:55.064Z,15.5
2022-08-19T01:55:55.066Z,15.5
2022-08-19T01:56:55.077Z,15.5
2022-08-19T01:57:55.080Z,15.4
2022-08-19T01:58:55.084Z,15.4
2022-08-19T01:59:55.188Z,15.4
2022-08-19T02:00:55.076Z,15.4
2022-08-19T02:01:55.061Z,15.4
2022-08-19T02:02:55.142Z,15.4
2022-08-19T02:03:55.066Z,15.3
2022-08-19T02:04:55.061Z,15.3
2022-08-19T02:05:55.067Z,15.3
2022-08-19T02:06:55.061Z,15.3
2022-08-19T02:07:55.078Z,15.3
2022-08-19T02:08:57.195Z,15.3
2022-08-19T02:09:55.073Z,15.3
2022-08-19T02:10:55.101Z,15.3
2022-08-19T02:11:55.077Z,15.3
2022-08-19T02:12:55.189Z,15.3
2022-08-19T02:13:55.063Z,15.3
2022-08-19T02:14:55.060Z,15.3
2022-08-19T02:15:55.081Z,15.3
2022-08-19T02:16:55.069Z,15.3
2022-08-19T02:17:55.081Z,15.3
2022-08-19T02:18:55.056Z,15.3
2022-08-19T02:19:55.067Z,15.2
2022-08-19T02:20:55.179Z,15.2
2022-08-19T02:21:55.048Z,15.2
2022-08-19T02:22:55.443Z,15.2
2022-08-19T02:23:55.029Z,15.2
2022-08-19T02:24:55.179Z,15.2
2022-08-19T02:25:55.453Z,15.2
2022-08-19T02:26:55.090Z,15.2
2022-08-19T02:27:55.352Z,15.2
2022-08-19T02:28:55.059Z,15.2
2022-08-19T02:29:55.103Z,15.1
2022-08-19T02:30:55.073Z,15.2
2022-08-19T02:31:55.095Z,15.1
2022-08-19T02:32:55.277Z,15.1
2022-08-19T02:33:56.565Z,15.1
2022-08-19T02:34:55.105Z,15.1
2022-08-19T02:35:55.076Z,15.1
2022-08-19T02:36:55.057Z,15.1
2022-08-19T02:37:55.075Z,15.1
2022-08-19T02:38:55.477Z,15.1
2022-08-19T02:39:55.149Z,15.1
2022-08-19T02:40:55.083Z,15.1
2022-08-19T02:41:55.086Z,15.1
2022-08-19T02:42:55.122Z,15.1
2022-08-19T02:44:20.392Z,15.1
2022-08-19T02:44:55.092Z,15.1
2022-08-19T02:45:55.070Z,15.1
2022-08-19T02:46:55.056Z,15.1
2022-08-19T02:47:55.069Z,15.1
2022-08-19T02:48:55.082Z,15.1
2022-08-19T02:49:55.093Z,15.1
2022-08-19T02:50:55.082Z,15.1
2022-08-19T02:51:55.077Z,15.1
2022-08-19T02:52:55.059Z,15.1
2022-08-19T02:53:55.080Z,15.1
2022-08-19T02:54:55.160Z,15.1
2022-08-19T02:55:55.070Z,15.1
2022-08-19T02:56:55.081Z,15.1
2022-08-19T02:57:55.065Z,15.1
2022-08-19T02:58:55.060Z,15.1
2022-08-19T02:59:55.084Z,15.1
2022-08-19T03:00:55.157Z,15.1
2022-08-19T03:01:55.078Z,15
2022-08-19T03:02:55.181Z,15.1
2022-08-19T03:03:55.082Z,15.1
2022-08-19T03:04:55.089Z,15.1
2022-08-19T03:05:56.344Z,15
2022-08-19T03:06:56.781Z,15.1
2022-08-19T03:07:55.060Z,15.1
2022-08-19T03:08:55.060Z,15.1
2022-08-19T03:09:55.048Z,15.1
2022-08-19T03:10:55.074Z,15.1
2022-08-19T03:11:55.068Z,15.1
2022-08-19T03:12:55.070Z,15.1
2022-08-19T03:13:55.088Z,15.1
2022-08-19T03:14:55.078Z,15.1
2022-08-19T03:15:55.067Z,15.1
2022-08-19T03:16:55.070Z,15.1
2022-08-19T03:17:55.173Z,15.1
2022-08-19T03:18:55.097Z,15.1
2022-08-19T03:19:55.057Z,15.2
2022-08-19T03:20:55.203Z,15.2
2022-08-19T03:21:55.148Z,15.2
2022-08-19T03:22:55.392Z,15.2
2022-08-19T03:23:55.668Z,15.2
2022-08-19T03:24:55.057Z,15.1
2022-08-19T03:25:58.061Z,15.2
2022-08-19T03:26:55.074Z,15.2
2022-08-19T03:27:55.072Z,15.2
2022-08-19T03:28:57.974Z,15.2
2022-08-19T03:29:55.061Z,15.1
2022-08-19T03:30:55.059Z,15.2
2022-08-19T03:31:55.064Z,15.2
2022-08-19T03:32:57.037Z,15.1
2022-08-19T03:33:55.076Z,15.1
2022-08-19T03:34:55.050Z,15.1
2022-08-19T03:35:55.065Z,15.1
2022-08-19T03:36:55.107Z,15.1
2022-08-19T03:37:55.038Z,15.1
2022-08-19T03:38:56.330Z,15.1
2022-08-19T03:39:55.180Z,15.1
2022-08-19T03:40:55.065Z,15.1
2022-08-19T03:42:29.222Z,15.1
2022-08-19T03:42:55.028Z,15.1
2022-08-19T03:43:55.315Z,15.1
2022-08-19T03:44:55.532Z,15.1
2022-08-19T03:45:55.349Z,15.1
2022-08-19T03:46:55.113Z,15.1
2022-08-19T03:47:55.377Z,15.1
2022-08-19T03:48:55.092Z,15.1
2022-08-19T03:49:55.098Z,15.1
2022-08-19T03:50:55.087Z,15.1
2022-08-19T03:51:55.064Z,15.1
2022-08-19T03:52:55.162Z,15.1
2022-08-19T03:53:55.065Z,15.1
2022-08-19T03:54:55.184Z,15
2022-08-19T03:55:55.411Z,15
2022-08-19T03:56:55.168Z,15
2022-08-19T03:57:58.687Z,15
2022-08-19T03:58:55.234Z,15
2022-08-19T03:59:55.687Z,15
2022-08-19T04:00:55.086Z,15
2022-08-19T04:01:55.130Z,15
2022-08-19T04:02:56.593Z,14.9
2022-08-19T04:03:55.065Z,15
2022-08-19T04:04:55.351Z,14.9
2022-08-19T04:05:55.081Z,14.9
2022-08-19T04:06:55.027Z,14.9
2022-08-19T04:07:55.041Z,14.9
2022-08-19T04:08:55.061Z,14.9
2022-08-19T04:09:55.096Z,14.9
2022-08-19T04:10:55.134Z,14.9
2022-08-19T04:11:55.460Z,14.9
2022-08-19T04:12:55.465Z,14.9
2022-08-19T04:13:55.073Z,14.9
2022-08-19T04:14:55.117Z,14.9
2022-08-19T04:15:55.165Z,14.9
2022-08-19T04:16:55.375Z,14.9
2022-08-19T04:17:55.074Z,14.9
2022-08-19T04:18:55.073Z,14.9
2022-08-19T04:19:55.102Z,14.9
2022-08-19T04:20:55.059Z,14.9
2022-08-19T04:21:55.387Z,14.9
2022-08-19T04:22:55.208Z,14.9
2022-08-19T04:23:55.137Z,14.9
2022-08-19T04:24:55.055Z,14.8
2022-08-19T04:25:55.049Z,14.8
2022-08-19T04:26:55.296Z,14.8
2022-08-19T04:27:55.073Z,14.9
2022-08-19T04:28:55.064Z,14.9
2022-08-19T04:29:55.112Z,14.8
2022-08-19T04:30:55.083Z,14.8
2022-08-19T04:31:55.079Z,14.8
2022-08-19T04:32:55.187Z,14.8
2022-08-19T04:33:55.082Z,14.8
2022-08-19T04:35:01.788Z,14.8
2022-08-19T04:35:55.080Z,14.8
2022-08-19T04:36:55.056Z,14.8
2022-08-19T04:37:55.065Z,14.8
2022-08-19T04:38:55.074Z,14.8
2022-08-19T04:39:55.156Z,14.8
2022-08-19T04:40:55.079Z,14.8
2022-08-19T04:41:55.071Z,14.8
2022-08-19T04:42:55.375Z,14.8
2022-08-19T04:43:55.093Z,14.8
2022-08-19T04:44:55.088Z,14.8
2022-08-19T04:45:56.401Z,14.8
2022-08-19T04:46:55.066Z,14.8
2022-08-19T04:47:58.563Z,14.8
2022-08-19T04:48:55.073Z,14.8
2022-08-19T04:49:55.097Z,14.8
2022-08-19T04:50:55.059Z,14.8
2022-08-19T04:51:55.079Z,14.8
2022-08-19T04:52:55.241Z,14.8
2022-08-19T04:53:55.206Z,14.8
2022-08-19T04:54:55.081Z,14.8
2022-08-19T04:55:55.093Z,14.8
2022-08-19T04:56:55.078Z,14.8
2022-08-19T04:57:55.076Z,14.8
2022-08-19T04:58:55.065Z,14.8
2022-08-19T04:59:55.095Z,14.8
2022-08-19T05:00:55.106Z,14.8
2022-08-19T05:01:55.064Z,14.8
2022-08-19T05:02:55.187Z,14.8
2022-08-19T05:03:55.276Z,14.8
2022-08-19T05:04:55.097Z,14.8
2022-08-19T05:05:55.058Z,14.8
2022-08-19T05:06:59.512Z,14.8
2022-08-19T05:07:55.079Z,14.9
2022-08-19T05:08:55.078Z,14.9
2022-08-19T05:09:56.656Z,14.9
2022-08-19T05:10:55.069Z,14.9
2022-08-19T05:11:55.062Z,14.9
2022-08-19T05:12:55.111Z,14.9
2022-08-19T05:13:55.076Z,14.9
2022-08-19T05:14:55.150Z,15
2022-08-19T05:15:55.064Z,15
2022-08-19T05:17:06.535Z,15
2022-08-19T05:17:55.058Z,15
2022-08-19T05:18:55.081Z,15
2022-08-19T05:19:55.083Z,15.1
2022-08-19T05:20:55.059Z,15.1
2022-08-19T05:21:55.069Z,15.1
2022-08-19T05:22:55.317Z,15.1
2022-08-19T05:23:55.056Z,15.1
2022-08-19T05:25:11.524Z,15.2
2022-08-19T05:25:55.061Z,15.2
2022-08-19T05:26:55.067Z,15.2
2022-08-19T05:27:55.061Z,15.2
2022-08-19T05:28:55.063Z,15.3
2022-08-19T05:29:55.100Z,15.3
2022-08-19T05:30:55.059Z,15.3
2022-08-19T05:31:55.044Z,15.3
2022-08-19T05:32:55.078Z,15.3
2022-08-19T05:33:55.121Z,15.3
2022-08-19T05:34:55.102Z,15.4
2022-08-19T05:35:55.288Z,15.4
2022-08-19T05:36:55.053Z,15.4
2022-08-19T05:37:58.953Z,15.4
2022-08-19T05:38:55.445Z,15.5
2022-08-19T05:39:55.319Z,15.5
2022-08-19T05:40:55.335Z,15.5
2022-08-19T05:41:55.067Z,15.5
2022-08-19T05:42:55.532Z,15.5
2022-08-19T05:43:55.077Z,15.6
2022-08-19T05:44:55.099Z,15.6
2022-08-19T05:45:55.073Z,15.6
2022-08-19T05:46:55.092Z,15.6
2022-08-19T05:47:55.066Z,15.7
2022-08-19T05:48:55.063Z,15.7
2022-08-19T05:49:55.075Z,15.7
2022-08-19T05:50:55.058Z,15.8
2022-08-19T05:51:55.078Z,15.8
2022-08-19T05:52:55.243Z,15.9
2022-08-19T05:53:55.063Z,15.9
2022-08-19T05:54:55.075Z,15.9
2022-08-19T05:55:55.077Z,16
2022-08-19T05:56:55.090Z,16
2022-08-19T05:57:55.176Z,16
2022-08-19T05:58:55.055Z,16.1
2022-08-19T05:59:57.983Z,16.1
2022-08-19T06:00:55.068Z,16.1
2022-08-19T06:01:55.060Z,16.2
2022-08-19T06:02:55.335Z,16.3
2022-08-19T06:03:55.059Z,16.3
2022-08-19T06:04:55.107Z,16.4
2022-08-19T06:05:55.063Z,16.4
2022-08-19T06:06:55.057Z,16.5
2022-08-19T06:07:55.214Z,16.6
2022-08-19T06:08:55.054Z,16.6
2022-08-19T06:10:00.237Z,16.7
2022-08-19T06:10:55.058Z,16.7
2022-08-19T06:11:55.983Z,16.8
2022-08-19T06:12:55.067Z,16.8
2022-08-19T06:13:57.219Z,16.9
2022-08-19T06:14:56.086Z,16.9
2022-08-19T06:15:55.067Z,17
2022-08-19T06:16:55.075Z,17.2
2022-08-19T06:17:55.257Z,17.2
2022-08-19T06:18:55.075Z,17.3
2022-08-19T06:19:55.108Z,17.4
2022-08-19T06:20:56.216Z,17.4
2022-08-19T06:21:55.070Z,17.5
2022-08-19T06:22:55.052Z,17.5
2022-08-19T06:23:55.058Z,17.6
2022-08-19T06:24:55.159Z,17.7
2022-08-19T06:25:55.057Z,17.8
2022-08-19T06:26:56.840Z,17.8
2022-08-19T06:28:13.843Z,17.9
2022-08-19T06:28:55.088Z,17.9
2022-08-19T06:29:55.068Z,18
2022-08-19T06:30:55.039Z,18.1
2022-08-19T06:31:55.155Z,18.1
2022-08-19T06:32:55.158Z,18.2
2022-08-19T06:33:55.850Z,18.2
2022-08-19T06:34:55.940Z,18.3
2022-08-19T06:35:56.225Z,18.4
2022-08-19T06:36:55.642Z,18.4
2022-08-19T06:37:55.407Z,18.5
2022-08-19T06:38:55.075Z,18.7
2022-08-19T06:39:55.078Z,18.7
2022-08-19T06:40:55.080Z,18.8
2022-08-19T06:41:56.862Z,18.9
2022-08-19T06:42:55.475Z,18.9
2022-08-19T06:43:55.710Z,19
2022-08-19T06:44:55.087Z,19
2022-08-19T06:45:55.178Z,19.1
2022-08-19T06:46:55.169Z,19.1
2022-08-19T06:47:55.056Z,19.2
2022-08-19T06:48:55.101Z,19.2
2022-08-19T06:49:55.081Z,19.3
2022-08-19T06:50:55.047Z,19.3
2022-08-19T06:51:55.076Z,19.4
2022-08-19T06:52:55.262Z,19.4
2022-08-19T06:53:55.243Z,19.5
2022-08-19T06:54:55.583Z,19.5
2022-08-19T06:55:55.060Z,19.7
2022-08-19T06:56:55.084Z,19.7
2022-08-19T06:57:55.176Z,19.8
2022-08-19T06:58:55.082Z,19.8
2022-08-19T06:59:55.075Z,19.8
2022-08-19T07:00:55.088Z,19.9
2022-08-19T07:01:55.065Z,19.9
2022-08-19T07:02:59.441Z,20
2022-08-19T07:03:55.113Z,20
2022-08-19T07:04:55.088Z,20
2022-08-19T07:05:55.061Z,20.1
2022-08-19T07:06:55.483Z,20.1
2022-08-19T07:07:57.607Z,20.1
2022-08-19T07:08:55.102Z,20.2
2022-08-19T07:09:58.619Z,20.2
2022-08-19T07:10:55.061Z,20.2
2022-08-19T07:11:55.233Z,20.2
2022-08-19T07:12:55.332Z,20.2
2022-08-19T07:13:55.063Z,20.3
2022-08-19T07:14:55.068Z,20.3
2022-08-19T07:15:55.116Z,20.3
2022-08-19T07:16:55.339Z,20.3
2022-08-19T07:17:55.071Z,20.5
2022-08-19T07:18:55.085Z,20.5
2022-08-19T07:19:55.356Z,20.6
2022-08-19T07:20:55.085Z,20.6
2022-08-19T07:21:55.092Z,20.6
2022-08-19T07:22:55.304Z,20.7
2022-08-19T07:23:55.072Z,20.7
2022-08-19T07:24:55.088Z,20.8
2022-08-19T07:25:55.109Z,20.8
2022-08-19T07:26:55.054Z,20.9
2022-08-19T07:27:55.940Z,21
2022-08-19T07:28:55.058Z,21
2022-08-19T07:29:56.372Z,21.2
2022-08-19T07:30:55.385Z,21.3
2022-08-19T07:31:55.136Z,21.4
2022-08-19T07:32:55.069Z,21.4
2022-08-19T07:33:55.073Z,21.5
2022-08-19T07:34:55.103Z,21.5
2022-08-19T07:35:55.058Z,21.6
2022-08-19T07:36:55.350Z,21.8
2022-08-19T07:37:55.248Z,21.9
2022-08-19T07:38:55.189Z,21.9
2022-08-19T07:39:55.195Z,22
2022-08-19T07:40:55.066Z,22.1
2022-08-19T07:41:55.082Z,22.1
2022-08-19T07:42:55.060Z,22.3
2022-08-19T07:43:55.106Z,22.4
2022-08-19T07:44:55.071Z,22.4
2022-08-19T07:45:55.150Z,22.5
2022-08-19T07:46:55.072Z,22.6
2022-08-19T07:47:55.087Z,22.6
2022-08-19T07:48:55.128Z,22.7
2022-08-19T07:49:55.096Z,22.9
2022-08-19T07:50:55.072Z,22.9
2022-08-19T07:51:55.075Z,23
2022-08-19T07:52:55.062Z,23
2022-08-19T07:53:55.104Z,23.1
2022-08-19T07:54:55.071Z,23.2
2022-08-19T07:55:55.063Z,23.2
2022-08-19T07:56:55.065Z,23.2
2022-08-19T07:57:55.068Z,23.4
2022-08-19T07:59:55.068Z,23.5
2022-08-19T08:00:55.056Z,23.5
2022-08-19T08:01:55.110Z,23.6
2022-08-19T08:02:55.247Z,23.6
2022-08-19T08:03:55.085Z,23.6
2022-08-19T08:04:55.070Z,23.6
2022-08-19T08:05:55.081Z,23.8
2022-08-19T08:06:55.072Z,23.8
2022-08-19T08:07:55.070Z,23.8
2022-08-19T08:08:55.065Z,23.8
2022-08-19T08:10:56.828Z,23.9
2022-08-19T08:11:55.184Z,23.9
2022-08-19T08:13:08.969Z,23.9
2022-08-19T08:14:00.290Z,23.9
2022-08-19T08:14:55.910Z,23.9
2022-08-19T08:15:55.952Z,23.9
2022-08-19T08:16:55.059Z,23.9
2022-08-19T08:17:55.070Z,23.9
2022-08-19T08:18:55.068Z,23.9
2022-08-19T08:19:55.059Z,23.9
2022-08-19T08:20:55.078Z,23.9
2022-08-19T08:21:55.077Z,24
2022-08-19T08:22:55.135Z,24
2022-08-19T08:23:56.180Z,24
2022-08-19T08:24:55.055Z,24
2022-08-19T08:25:55.053Z,24
2022-08-19T08:26:57.054Z,24
2022-08-19T08:27:55.350Z,24
2022-08-19T08:28:55.080Z,24
2022-08-19T08:29:55.281Z,24
2022-08-19T08:30:55.109Z,24
2022-08-19T08:31:58.693Z,24
2022-08-19T08:32:55.174Z,23.9
2022-08-19T08:33:55.035Z,23.9
2022-08-19T08:34:55.171Z,23.9
2022-08-19T08:35:55.194Z,23.9
2022-08-19T08:36:55.770Z,23.9
2022-08-19T08:37:55.387Z,24
2022-08-19T08:39:55.837Z,23.9
2022-08-19T08:40:55.124Z,24
2022-08-19T08:41:55.409Z,23.9
2022-08-19T08:42:56.000Z,23.9
2022-08-19T08:43:55.825Z,23.9
2022-08-19T08:45:55.167Z,23.9
2022-08-19T08:46:55.031Z,24
2022-08-19T08:47:55.116Z,24
2022-08-19T08:48:55.131Z,23.9
2022-08-19T08:49:55.314Z,23.9
2022-08-19T08:50:55.865Z,23.9
2022-08-19T08:51:59.893Z,23.9
2022-08-19T08:52:55.125Z,23.8
2022-08-19T08:53:56.058Z,23.9
2022-08-19T08:54:56.248Z,23.9
2022-08-19T08:55:55.056Z,23.9
2022-08-19T08:56:55.229Z,23.9
2022-08-19T08:57:55.179Z,23.9
2022-08-19T08:58:55.050Z,24
2022-08-19T08:59:55.076Z,24
2022-08-19T09:00:55.076Z,24.1
2022-08-19T09:01:55.114Z,24.1
2022-08-19T09:02:55.083Z,24.1
2022-08-19T09:03:55.304Z,24.3
2022-08-19T09:04:55.042Z,24.4
2022-08-19T09:05:55.058Z,24.4
2022-08-19T09:06:55.061Z,24.4
2022-08-19T09:07:55.133Z,24.5
2022-08-19T09:08:56.600Z,24.7
2022-08-19T09:09:56.091Z,24.7
2022-08-19T09:10:55.564Z,24.8
2022-08-19T09:11:55.068Z,24.9
2022-08-19T09:12:55.086Z,24.9
2022-08-19T09:13:55.088Z,25.1
2022-08-19T09:14:55.122Z,25.2
2022-08-19T09:15:55.058Z,25.3
2022-08-19T09:16:55.053Z,25.5
2022-08-19T09:17:55.178Z,25.6
2022-08-19T09:18:55.089Z,25.6
2022-08-19T09:19:55.071Z,25.7
2022-08-19T09:20:55.061Z,25.7
2022-08-19T09:21:55.072Z,25.7
2022-08-19T09:22:55.060Z,25.6
2022-08-19T09:23:55.113Z,25.5
2022-08-19T09:24:55.060Z,25.3
2022-08-19T09:25:55.085Z,25.2
2022-08-19T09:26:55.073Z,25.2
2022-08-19T09:27:55.493Z,25.1
2022-08-19T09:28:55.090Z,25.1
2022-08-19T09:29:55.084Z,24.9
2022-08-19T09:30:55.068Z,25.1
2022-08-19T09:31:55.076Z,25.1
2022-08-19T09:32:55.064Z,25.2
2022-08-19T09:33:55.084Z,25.3
2022-08-19T09:34:55.060Z,25.3
2022-08-19T09:35:55.111Z,25.5
2022-08-19T09:36:55.061Z,25.6
2022-08-19T09:37:57.528Z,25.6
2022-08-19T09:38:55.067Z,25.7
2022-08-19T09:39:55.112Z,25.7
2022-08-19T09:40:55.051Z,25.9
2022-08-19T09:41:55.061Z,25.9
2022-08-19T09:42:55.047Z,25.9
2022-08-19T09:43:55.074Z,25.9
2022-08-19T09:44:55.035Z,25.9
2022-08-19T09:45:55.146Z,25.9
2022-08-19T09:46:55.486Z,25.7
2022-08-19T09:47:56.379Z,25.7
2022-08-19T09:48:56.442Z,25.7
2022-08-19T09:49:56.715Z,25.7
2022-08-19T09:50:56.087Z,25.7
2022-08-19T09:51:55.060Z,25.7
2022-08-19T09:52:55.294Z,25.7
2022-08-19T09:53:55.127Z,25.7
2022-08-19T09:54:55.068Z,25.7
2022-08-19T09:55:55.050Z,25.7
2022-08-19T09:56:55.073Z,25.9
2022-08-19T09:57:55.216Z,25.9
2022-08-19T09:58:55.071Z,25.9
2022-08-19T09:59:55.086Z,26
2022-08-19T10:00:55.091Z,26
2022-08-19T10:01:55.061Z,26
2022-08-19T10:02:55.060Z,25.9
2022-08-19T10:03:55.088Z,25.9
2022-08-19T10:04:55.062Z,25.9
2022-08-19T10:05:55.342Z,25.7
2022-08-19T10:06:55.368Z,25.7
2022-08-19T10:07:55.194Z,25.6
2022-08-19T10:08:55.056Z,25.6
2022-08-19T10:09:55.085Z,25.5
2022-08-19T10:10:55.058Z,25.6
2022-08-19T10:11:55.236Z,25.6
2022-08-19T10:12:55.056Z,25.6
2022-08-19T10:13:55.059Z,25.6
2022-08-19T10:14:55.061Z,25.6
2022-08-19T10:15:55.052Z,25.6
2022-08-19T10:16:55.079Z,25.6
2022-08-19T10:17:55.424Z,25.7
2022-08-19T10:18:58.869Z,25.9
2022-08-19T10:19:56.106Z,25.9
2022-08-19T10:20:55.080Z,25.9
2022-08-19T10:21:55.624Z,26
2022-08-19T10:22:55.072Z,26.1
2022-08-19T10:23:55.060Z,26.3
2022-08-19T10:24:55.058Z,26.3
2022-08-19T10:25:55.078Z,26.4
2022-08-19T10:26:56.105Z,26.6
2022-08-19T10:27:55.927Z,26.7
2022-08-19T10:28:55.055Z,26.9
2022-08-19T10:29:55.077Z,27
2022-08-19T10:30:55.030Z,27.1
2022-08-19T10:32:01.534Z,27.3
2022-08-19T10:32:55.093Z,27.4
2022-08-19T10:33:55.306Z,27.6
2022-08-19T10:34:57.136Z,27.6
2022-08-19T10:35:57.157Z,27.7
2022-08-19T10:36:56.609Z,27.7
2022-08-19T10:37:57.163Z,27.6
2022-08-19T10:38:56.926Z,27.6
2022-08-19T10:39:55.083Z,27.4
2022-08-19T10:40:55.112Z,27.3
2022-08-19T10:41:55.073Z,27.3
2022-08-19T10:42:55.177Z,27.3
2022-08-19T10:43:55.332Z,27.3
2022-08-19T10:44:55.491Z,27.3
2022-08-19T10:45:55.072Z,27.3
2022-08-19T10:46:55.351Z,27.3
2022-08-19T10:47:55.593Z,27.4
2022-08-19T10:48:55.031Z,27.4
2022-08-19T10:49:55.033Z,27.4
2022-08-19T10:50:55.078Z,27.4
2022-08-19T10:51:55.305Z,27.4
2022-08-19T10:52:55.211Z,27.3
2022-08-19T10:53:55.061Z,27.3
2022-08-19T10:54:55.082Z,27.3
2022-08-19T10:55:55.070Z,27.1
2022-08-19T10:56:55.048Z,27.1
2022-08-19T10:58:02.079Z,27
2022-08-19T10:58:55.080Z,27
2022-08-19T10:59:55.060Z,27
2022-08-19T11:00:55.155Z,27
2022-08-19T11:01:55.816Z,27.1
2022-08-19T11:02:55.072Z,27.1
2022-08-19T11:03:55.106Z,27.1
2022-08-19T11:04:55.063Z,27.1
2022-08-19T11:05:55.068Z,27
2022-08-19T11:06:55.072Z,27
2022-08-19T11:07:55.278Z,27
2022-08-19T11:08:55.139Z,27
2022-08-19T11:09:55.068Z,27
2022-08-19T11:10:55.077Z,27
2022-08-19T11:11:55.076Z,27
2022-08-19T11:12:55.075Z,27.1
2022-08-19T11:13:55.084Z,27.1
2022-08-19T11:14:55.055Z,27.3
2022-08-19T11:15:55.067Z,27.3
2022-08-19T11:16:55.073Z,27.3
2022-08-19T11:17:55.238Z,27.3
2022-08-19T11:18:55.104Z,27.3
2022-08-19T11:19:55.087Z,27.3
2022-08-19T11:20:55.064Z,27.3
2022-08-19T11:21:55.066Z,27.3
2022-08-19T11:22:55.077Z,27.3
2022-08-19T11:23:55.116Z,27.3
2022-08-19T11:24:55.075Z,27.1
2022-08-19T11:25:55.068Z,27.1
2022-08-19T11:26:55.062Z,27.1
2022-08-19T11:27:55.306Z,27.1
2022-08-19T11:28:55.115Z,27.1
2022-08-19T11:29:55.059Z,27.1
2022-08-19T11:30:55.103Z,27.1
2022-08-19T11:31:55.064Z,27.1
2022-08-19T11:32:55.059Z,27.1
2022-08-19T11:33:55.302Z,27.1
2022-08-19T11:34:55.196Z,27.1
2022-08-19T11:35:55.059Z,27.1
2022-08-19T11:36:55.134Z,27.1
2022-08-19T11:37:55.171Z,27.1
2022-08-19T11:38:55.231Z,27.1
2022-08-19T11:39:55.063Z,27.1
2022-08-19T11:40:55.147Z,27.1
2022-08-19T11:41:55.028Z,27.3
2022-08-19T11:42:55.185Z,27.1
2022-08-19T11:43:55.037Z,27.1
2022-08-19T11:44:55.276Z,27.1
2022-08-19T11:45:55.384Z,27.1
2022-08-19T11:46:55.142Z,27.1
2022-08-19T11:47:55.750Z,27
2022-08-19T11:48:55.360Z,27
2022-08-19T11:49:55.518Z,27
2022-08-19T11:50:55.262Z,26.9
2022-08-19T11:51:55.572Z,26.9
2022-08-19T11:52:55.061Z,26.9
2022-08-19T11:53:55.071Z,26.9
2022-08-19T11:54:55.083Z,26.9
2022-08-19T11:55:55.071Z,27
2022-08-19T11:56:55.099Z,27
2022-08-19T11:57:55.211Z,27
2022-08-19T11:58:55.073Z,27
2022-08-19T11:59:55.067Z,27
2022-08-19T12:00:55.149Z,27
2022-08-19T12:01:55.045Z,27
2022-08-19T12:02:55.210Z,27
2022-08-19T12:03:55.321Z,27
2022-08-19T12:04:55.037Z,27
2022-08-19T12:05:55.210Z,27
2022-08-19T12:06:55.443Z,27
2022-08-19T12:07:55.352Z,27.1
2022-08-19T12:08:55.256Z,27.1
2022-08-19T12:09:55.465Z,27.1
2022-08-19T12:10:55.066Z,27.1
2022-08-19T12:11:55.198Z,27.3
2022-08-19T12:12:58.742Z,27.3
2022-08-19T12:13:55.102Z,27.3
2022-08-19T12:14:55.061Z,27.3
2022-08-19T12:15:55.074Z,27.3
2022-08-19T12:16:55.085Z,27.3
2022-08-19T12:17:55.234Z,27.3
2022-08-19T12:18:55.088Z,27.3
2022-08-19T12:19:55.086Z,27.3
2022-08-19T12:20:55.061Z,27.1
2022-08-19T12:21:55.056Z,27.1
2022-08-19T12:22:55.059Z,27.1
2022-08-19T12:23:55.881Z,27
2022-08-19T12:24:55.076Z,27
2022-08-19T12:25:55.057Z,27
2022-08-19T12:26:55.075Z,27
2022-08-19T12:27:57.380Z,26.9
2022-08-19T12:28:55.098Z,26.9
2022-08-19T12:29:55.066Z,26.9
2022-08-19T12:30:55.055Z,26.9
2022-08-19T12:31:55.069Z,26.9
2022-08-19T12:32:55.063Z,26.7
2022-08-19T12:33:55.092Z,26.7
2022-08-19T12:34:55.069Z,26.7
2022-08-19T12:35:55.067Z,26.6
2022-08-19T12:36:55.067Z,26.6
2022-08-19T12:37:56.798Z,26.6
2022-08-19T12:38:55.201Z,26.6
2022-08-19T12:39:55.135Z,26.6
2022-08-19T12:40:58.387Z,26.6
2022-08-19T12:41:55.218Z,26.6
2022-08-19T12:42:55.073Z,26.6
2022-08-19T12:43:55.118Z,26.6
2022-08-19T12:44:55.045Z,26.6
2022-08-19T12:45:55.075Z,26.6
2022-08-19T12:46:55.067Z,26.7
2022-08-19T12:47:55.370Z,26.7
2022-08-19T12:48:55.198Z,26.7
2022-08-19T12:49:55.862Z,26.9
2022-08-19T12:50:55.173Z,26.9
2022-08-19T12:51:55.080Z,27
2022-08-19T12:52:55.070Z,27
2022-08-19T12:53:55.066Z,27.1
2022-08-19T12:54:55.154Z,27.1
2022-08-19T12:55:55.066Z,27.3
2022-08-19T12:56:55.060Z,27.3
2022-08-19T12:57:55.250Z,27.4
2022-08-19T12:58:55.067Z,27.4
2022-08-19T12:59:55.211Z,27.6
2022-08-19T13:00:55.093Z,27.6
2022-08-19T13:01:55.070Z,27.6
2022-08-19T13:02:55.066Z,27.7
2022-08-19T13:03:55.057Z,27.7
2022-08-19T13:04:55.078Z,27.7
2022-08-19T13:05:55.061Z,27.9
2022-08-19T13:06:55.081Z,27.9
2022-08-19T13:07:55.226Z,27.9
2022-08-19T13:08:59.086Z,27.9
2022-08-19T13:09:55.065Z,27.9
2022-08-19T13:10:55.074Z,27.9
2022-08-19T13:11:55.064Z,27.9
2022-08-19T13:12:55.058Z,27.9
2022-08-19T13:13:55.063Z,27.9
2022-08-19T13:14:55.078Z,28
2022-08-19T13:15:55.069Z,28
2022-08-19T13:16:55.078Z,28.1
2022-08-19T13:17:55.165Z,28.1
2022-08-19T13:18:55.069Z,28.1
2022-08-19T13:19:55.059Z,28.3
2022-08-19T13:20:55.073Z,28.3
2022-08-19T13:21:57.721Z,28.3
2022-08-19T13:22:55.079Z,28.4
2022-08-19T13:23:55.076Z,28.4
2022-08-19T13:24:55.079Z,28.4
2022-08-19T13:25:55.179Z,28.6
2022-08-19T13:26:55.065Z,28.6
2022-08-19T13:27:55.196Z,28.4
2022-08-19T13:28:55.074Z,28.4